createdAt,value
2024-05-09T00:00:47.100Z,0.30
2024-05-09T00:03:38.171Z,0.40
2024-05-09T00:06:10.196Z,0.50
2024-05-09T00:08:41.380Z,0.70
2024-05-09T00:11:14.431Z,0.30
2024-05-09T00:13:45.750Z,0.30
2024-05-09T00:16:16.802Z,0.40
2024-05-09T00:18:47.874Z,0.30
2024-05-09T00:21:18.838Z,0.50
2024-05-09T00:23:50.114Z,0.50
2024-05-09T00:26:21.188Z,0.60
2024-05-09T00:28:52.176Z,0.40
2024-05-09T00:31:23.147Z,0.50
2024-05-09T00:33:54.201Z,0.30
2024-05-09T00:36:25.267Z,0.40
2024-05-09T00:38:56.213Z,0.60
2024-05-09T00:41:27.153Z,0.70
2024-05-09T00:43:58.266Z,0.30
2024-05-09T00:46:29.301Z,0.40
2024-05-09T00:49:00.372Z,0.40
2024-05-09T00:51:31.545Z,0.30
2024-05-09T00:54:02.487Z,0.40
2024-05-09T00:56:34.455Z,0.40
2024-05-09T00:59:05.648Z,0.40
2024-05-09T01:01:36.888Z,0.40
2024-05-09T01:04:08.594Z,0.70
2024-05-09T01:06:39.624Z,0.70
2024-05-09T01:09:10.874Z,0.50
2024-05-09T01:12:10.156Z,0.60
2024-05-09T01:14:41.430Z,0.40
2024-05-09T01:17:12.559Z,0.50
2024-05-09T01:19:44.252Z,0.60
2024-05-09T01:22:15.411Z,0.80
2024-05-09T01:24:46.360Z,0.90
2024-05-09T01:27:17.463Z,0.90
2024-05-09T01:29:48.441Z,0.90
2024-05-09T01:32:19.504Z,1.10
2024-05-09T01:34:50.558Z,1.10
2024-05-09T01:37:21.593Z,0.80
2024-05-09T01:39:52.637Z,0.90
2024-05-09T01:42:23.568Z,0.80
2024-05-09T01:44:54.468Z,0.90
2024-05-09T01:47:25.608Z,0.90
2024-05-09T01:49:56.646Z,0.70
2024-05-09T01:52:27.905Z,1.00
2024-05-09T01:55:00.768Z,0.90
2024-05-09T02:00:03.847Z,0.70
2024-05-09T02:02:41.508Z,0.90
2024-05-09T02:05:12.627Z,1.00
2024-05-09T02:07:43.734Z,0.90
2024-05-09T02:10:20.440Z,0.80
2024-05-09T02:12:57.021Z,0.80
2024-05-09T02:15:27.998Z,0.80
2024-05-09T02:17:59.096Z,0.90
2024-05-09T02:20:36.125Z,0.60
2024-05-09T02:23:08.947Z,0.70
2024-05-09T02:25:40.235Z,0.70
2024-05-09T02:28:11.290Z,1.00
2024-05-09T02:30:42.713Z,0.80
2024-05-09T02:33:14.639Z,0.80
2024-05-09T02:35:46.223Z,1.00
2024-05-09T02:38:17.322Z,0.70
2024-05-09T02:40:48.328Z,0.90
2024-05-09T02:43:19.336Z,0.90
2024-05-09T02:45:50.301Z,1.00
2024-05-09T02:48:21.501Z,1.00
2024-05-09T02:50:52.663Z,0.90
2024-05-09T02:53:23.688Z,1.20
2024-05-09T02:55:54.738Z,1.20
2024-05-09T02:58:25.729Z,1.10
2024-05-09T03:00:56.629Z,1.20
2024-05-09T03:03:34.545Z,0.90
2024-05-09T03:06:06.121Z,1.00
2024-05-09T03:08:37.351Z,0.80
2024-05-09T03:11:08.591Z,1.10
2024-05-09T03:13:42.110Z,1.10
2024-05-09T03:16:13.003Z,1.10
2024-05-09T03:18:44.137Z,1.00
2024-05-09T03:21:15.241Z,1.00
2024-05-09T03:23:46.388Z,0.90
2024-05-09T03:26:19.345Z,1.10
2024-05-09T03:28:50.408Z,1.10
2024-05-09T03:31:21.561Z,1.10
2024-05-09T03:33:52.795Z,1.00
2024-05-09T03:36:23.883Z,1.00
2024-05-09T03:38:54.828Z,1.10
2024-05-09T03:41:25.860Z,1.10
2024-05-09T03:43:56.876Z,0.90
2024-05-09T03:46:27.779Z,1.00
2024-05-09T03:48:58.838Z,1.00
2024-05-09T03:51:29.970Z,0.80
2024-05-09T03:54:01.212Z,1.10
2024-05-09T03:56:32.269Z,1.00
2024-05-09T03:59:03.359Z,1.10
2024-05-09T04:01:34.448Z,0.90
2024-05-09T04:04:05.808Z,1.00
2024-05-09T04:06:36.751Z,0.90
2024-05-09T04:09:07.672Z,0.90
2024-05-09T04:11:38.698Z,1.00
2024-05-09T04:14:09.893Z,1.20
2024-05-09T04:16:40.867Z,1.10
2024-05-09T04:19:11.917Z,0.90
2024-05-09T04:21:43.026Z,0.80
2024-05-09T04:24:13.949Z,0.70
2024-05-09T04:26:44.924Z,0.50
2024-05-09T04:29:15.931Z,0.60
2024-05-09T04:31:47.565Z,0.90
2024-05-09T04:34:18.755Z,0.80
2024-05-09T04:36:50.037Z,0.90
2024-05-09T04:39:21.079Z,0.70
2024-05-09T04:41:52.032Z,0.90
2024-05-09T04:44:23.123Z,0.90
2024-05-09T04:46:54.448Z,0.70
2024-05-09T04:49:25.650Z,0.80
2024-05-09T04:51:56.717Z,0.70
2024-05-09T04:54:34.226Z,0.70
2024-05-09T04:57:07.866Z,0.70
2024-05-09T04:59:38.844Z,0.60
2024-05-09T05:02:09.850Z,0.70
2024-05-09T05:04:40.822Z,0.70
2024-05-09T05:07:11.865Z,0.60
2024-05-09T05:09:42.852Z,0.50
2024-05-09T05:12:28.023Z,0.60
2024-05-09T05:14:59.186Z,0.70
2024-05-09T05:17:30.429Z,0.70
2024-05-09T05:20:01.700Z,0.50
2024-05-09T05:22:32.723Z,0.50
2024-05-09T05:25:03.887Z,0.40
2024-05-09T05:27:34.805Z,0.40
2024-05-09T05:30:11.794Z,0.20
2024-05-09T05:32:45.642Z,0.20
2024-05-09T05:35:16.731Z,0.40
2024-05-09T05:37:47.829Z,0.50
2024-05-09T05:40:27.926Z,0.50
2024-05-09T05:43:07.111Z,0.60
2024-05-09T05:45:38.956Z,0.50
2024-05-09T05:48:10.720Z,0.50
2024-05-09T05:50:41.920Z,0.40
2024-05-09T05:53:13.061Z,0.40
2024-05-09T05:55:44.233Z,0.50
2024-05-09T05:58:15.343Z,0.50
2024-05-09T06:00:46.450Z,0.40
2024-05-09T06:03:17.606Z,0.30
2024-05-09T06:05:48.843Z,0.50
2024-05-09T06:08:19.997Z,0.40
2024-05-09T06:10:51.072Z,0.30
2024-05-09T06:13:22.208Z,0.40
2024-05-09T06:15:53.185Z,0.60
2024-05-09T06:18:24.743Z,0.20
2024-05-09T06:20:55.882Z,0.30
2024-05-09T06:23:26.960Z,0.20
2024-05-09T06:25:58.018Z,0.10
2024-05-09T06:28:29.006Z,0.00
2024-05-09T06:30:59.988Z,0.00
2024-05-09T06:33:31.123Z,0.00
2024-05-09T06:36:02.275Z,0.00
2024-05-09T06:38:33.631Z,0.00
2024-05-09T06:41:05.951Z,0.00
2024-05-09T06:43:37.742Z,0.00
2024-05-09T06:46:08.840Z,0.00
2024-05-09T06:48:39.231Z,0.00
2024-05-09T06:51:09.145Z,0.00
2024-05-09T06:53:40.432Z,0.00
2024-05-09T06:56:10.471Z,0.00
2024-05-09T06:58:40.021Z,0.00
2024-05-09T07:01:09.660Z,0.00
2024-05-09T07:03:41.891Z,0.00
2024-05-09T07:06:11.628Z,0.00
2024-05-09T07:08:41.704Z,0.10
2024-05-09T07:11:11.372Z,0.00
2024-05-09T07:13:40.946Z,0.00
2024-05-09T07:16:10.580Z,0.00
2024-05-09T07:18:40.346Z,0.00
2024-05-09T07:21:10.570Z,0.00
2024-05-09T07:23:40.976Z,0.00
2024-05-09T07:26:11.453Z,0.00
2024-05-09T07:28:41.296Z,0.10
2024-05-09T07:31:11.540Z,0.00
2024-05-09T07:33:41.257Z,0.00
2024-05-09T07:36:10.877Z,0.00
2024-05-09T07:38:40.481Z,0.10
2024-05-09T07:41:10.151Z,0.00
2024-05-09T07:43:39.768Z,0.00
2024-05-09T07:47:13.885Z,0.10
2024-05-09T07:50:35.808Z,0.20
2024-05-09T07:53:20.368Z,0.10
2024-05-09T07:54:38.560Z,0.00
2024-05-09T07:57:08.254Z,0.00
2024-05-09T07:59:38.598Z,0.10
2024-05-09T08:02:08.527Z,0.10
2024-05-09T08:04:38.522Z,0.20
2024-05-09T08:07:08.266Z,0.20
2024-05-09T08:09:39.611Z,0.20
2024-05-09T08:12:12.570Z,0.40
2024-05-09T08:14:42.102Z,0.30
2024-05-09T08:17:12.465Z,0.20
2024-05-09T08:19:42.115Z,0.50
2024-05-09T08:22:11.900Z,0.50
2024-05-09T08:24:41.715Z,0.30
2024-05-09T08:27:11.449Z,0.50
2024-05-09T08:29:41.046Z,0.50
2024-05-09T08:32:12.832Z,0.40
2024-05-09T08:34:42.452Z,0.40
2024-05-09T08:37:19.428Z,0.50
2024-05-09T08:39:51.825Z,0.40
2024-05-09T08:42:23.519Z,0.30
2024-05-09T08:44:53.093Z,0.50
2024-05-09T08:47:22.842Z,0.50
2024-05-09T08:49:58.025Z,0.40
2024-05-09T08:52:27.606Z,0.30
2024-05-09T08:54:57.227Z,0.30
2024-05-09T08:57:26.981Z,0.20
2024-05-09T09:00:00.694Z,0.10
2024-05-09T09:02:31.111Z,0.30
2024-05-09T09:05:03.916Z,0.20
2024-05-09T09:07:34.068Z,0.20
2024-05-09T09:10:07.024Z,0.30
2024-05-09T09:12:38.075Z,0.10
2024-05-09T09:15:08.067Z,0.10
2024-05-09T09:17:37.953Z,0.20
2024-05-09T09:20:14.249Z,0.30
2024-05-09T09:22:46.327Z,0.20
2024-05-09T09:25:16.115Z,0.20
2024-05-09T09:27:47.133Z,0.20
2024-05-09T09:30:30.831Z,0.20
2024-05-09T09:33:05.487Z,0.20
2024-05-09T09:35:36.504Z,0.30
2024-05-09T09:38:07.474Z,0.30
2024-05-09T09:40:42.401Z,0.20
2024-05-09T09:43:19.538Z,0.30
2024-05-09T09:45:50.657Z,0.30
2024-05-09T09:48:20.702Z,0.30
2024-05-09T09:50:52.101Z,0.50
2024-05-09T09:53:23.175Z,0.20
2024-05-09T09:55:53.629Z,0.20
2024-05-09T09:58:23.477Z,0.20
2024-05-09T10:00:53.282Z,0.40
2024-05-09T10:03:23.152Z,0.10
2024-05-09T10:05:53.439Z,0.20
2024-05-09T10:08:23.871Z,0.40
2024-05-09T10:10:53.582Z,0.40
2024-05-09T10:13:33.056Z,0.30
2024-05-09T10:16:08.058Z,0.20
2024-05-09T10:18:38.326Z,0.20
2024-05-09T10:21:17.174Z,0.00
2024-05-09T10:23:57.208Z,0.10
2024-05-09T10:26:33.585Z,0.20
2024-05-09T10:29:11.190Z,0.50
2024-05-09T10:31:41.605Z,0.30
2024-05-09T10:34:18.403Z,0.30
2024-05-09T10:36:52.151Z,0.60
2024-05-09T10:39:22.200Z,0.30
2024-05-09T10:41:51.799Z,0.50
2024-05-09T10:44:22.070Z,0.30
2024-05-09T10:46:54.320Z,0.40
2024-05-09T10:49:24.133Z,0.20
2024-05-09T10:51:54.047Z,0.40
2024-05-09T10:54:23.619Z,0.20
2024-05-09T10:56:58.306Z,0.40
2024-05-09T10:59:32.837Z,0.20
2024-05-09T11:02:03.727Z,0.30
2024-05-09T11:04:33.748Z,0.30
2024-05-09T11:07:05.603Z,0.20
2024-05-09T11:09:35.957Z,0.20
2024-05-09T11:12:06.264Z,0.20
2024-05-09T11:14:35.855Z,0.10
2024-05-09T11:17:06.378Z,0.20
2024-05-09T11:19:37.940Z,0.20
2024-05-09T11:22:07.708Z,0.10
2024-05-09T11:24:37.379Z,0.30
2024-05-09T11:27:07.216Z,0.30
2024-05-09T11:29:40.314Z,0.20
2024-05-09T11:32:11.438Z,0.20
2024-05-09T11:34:42.285Z,0.20
2024-05-09T11:37:13.536Z,0.20
2024-05-09T11:39:43.266Z,0.20
2024-05-09T11:42:14.010Z,0.30
2024-05-09T11:44:43.643Z,0.20
2024-05-09T11:47:13.227Z,0.20
2024-05-09T11:49:42.884Z,0.20
2024-05-09T11:52:12.639Z,0.30
2024-05-09T11:54:42.293Z,0.20
2024-05-09T11:57:11.948Z,0.30
2024-05-09T11:59:41.587Z,0.20
2024-05-09T12:02:11.504Z,0.30
2024-05-09T12:04:41.459Z,0.20
2024-05-09T12:07:13.033Z,0.20
2024-05-09T12:09:42.717Z,0.20
2024-05-09T12:12:12.460Z,0.20
2024-05-09T12:14:42.229Z,0.20
2024-05-09T12:17:11.947Z,0.20
2024-05-09T12:19:41.554Z,0.20
2024-05-09T12:22:11.268Z,0.10
2024-05-09T12:24:40.904Z,0.20
2024-05-09T12:27:10.514Z,0.20
2024-05-09T12:29:40.272Z,0.10
2024-05-09T12:32:09.987Z,0.20
2024-05-09T12:34:39.700Z,0.00
2024-05-09T12:37:09.499Z,0.10
2024-05-09T12:39:39.220Z,0.10
2024-05-09T12:42:09.779Z,0.10
2024-05-09T12:44:40.503Z,0.20
2024-05-09T12:47:10.046Z,0.00
2024-05-09T12:49:39.833Z,0.00
2024-05-09T12:52:09.650Z,0.20
2024-05-09T12:54:39.492Z,0.10
2024-05-09T12:57:09.035Z,0.00
2024-05-09T12:59:38.594Z,0.00
2024-05-09T13:02:08.400Z,0.10
2024-05-09T13:04:38.150Z,0.10
2024-05-09T13:07:08.108Z,0.10
2024-05-09T13:09:37.835Z,0.10
2024-05-09T13:12:07.927Z,0.20
2024-05-09T13:14:37.529Z,0.10
2024-05-09T13:17:07.167Z,0.00
2024-05-09T13:19:36.779Z,0.20
2024-05-09T13:22:06.608Z,0.30
2024-05-09T13:24:36.267Z,0.20
2024-05-09T13:27:06.082Z,0.20
2024-05-09T13:29:35.625Z,0.20
2024-05-09T13:32:05.619Z,0.10
2024-05-09T13:34:35.237Z,0.20
2024-05-09T13:37:05.084Z,0.00
2024-05-09T13:39:35.566Z,0.20
2024-05-09T13:42:05.495Z,0.10
2024-05-09T13:44:35.280Z,0.00
2024-05-09T13:47:05.087Z,0.10
2024-05-09T13:49:34.715Z,0.10
2024-05-09T13:52:04.484Z,0.00
2024-05-09T13:54:34.496Z,0.10
2024-05-09T13:57:04.173Z,0.00
2024-05-09T13:59:33.696Z,0.10
2024-05-09T14:02:03.364Z,0.20
2024-05-09T14:04:33.102Z,0.10
2024-05-09T14:07:02.952Z,0.10
2024-05-09T14:09:32.809Z,0.00
2024-05-09T14:12:02.435Z,0.10
2024-05-09T14:14:32.016Z,0.20
2024-05-09T14:17:01.686Z,0.00
2024-05-09T14:19:31.316Z,0.20
2024-05-09T14:22:00.932Z,0.20
2024-05-09T14:24:30.548Z,0.20
2024-05-09T14:27:00.146Z,0.10
2024-05-09T14:29:29.863Z,0.10
2024-05-09T14:31:59.582Z,0.20
2024-05-09T14:34:29.257Z,0.10
2024-05-09T14:36:59.522Z,0.10
2024-05-09T14:39:29.181Z,0.10
2024-05-09T14:41:58.799Z,0.00
2024-05-09T14:44:28.506Z,0.10
2024-05-09T14:46:58.104Z,0.00
2024-05-09T14:49:27.848Z,0.10
2024-05-09T14:51:57.476Z,0.20
2024-05-09T14:54:27.030Z,0.10
2024-05-09T14:56:57.667Z,0.10
2024-05-09T14:59:27.246Z,0.10
2024-05-09T15:01:57.071Z,0.10
2024-05-09T15:04:28.388Z,0.10
2024-05-09T15:07:00.086Z,0.10
2024-05-09T15:09:35.406Z,0.00
2024-05-09T15:12:05.464Z,0.00
2024-05-09T15:14:35.080Z,0.20
2024-05-09T15:17:04.845Z,0.10
2024-05-09T15:19:34.743Z,0.00
2024-05-09T15:22:04.649Z,0.00
2024-05-09T15:24:34.221Z,0.10
2024-05-09T15:27:04.316Z,0.10
2024-05-09T15:29:33.860Z,0.10
2024-05-09T15:32:03.534Z,0.10
2024-05-09T15:34:33.304Z,0.10
2024-05-09T15:37:03.796Z,0.20
2024-05-09T15:39:33.587Z,0.10
2024-05-09T15:42:03.169Z,0.10
2024-05-09T15:44:33.752Z,0.20
2024-05-09T15:47:03.374Z,0.10
2024-05-09T15:49:33.244Z,0.10
2024-05-09T15:52:03.181Z,0.20
2024-05-09T15:54:32.990Z,0.10
2024-05-09T15:57:02.655Z,0.30
2024-05-09T15:59:32.356Z,0.20
2024-05-09T16:02:02.021Z,0.00
2024-05-09T16:04:31.827Z,0.10
2024-05-09T16:07:01.577Z,0.30
2024-05-09T16:09:31.387Z,0.20
2024-05-09T16:12:01.060Z,0.20
2024-05-09T16:14:30.904Z,0.40
2024-05-09T16:17:00.602Z,0.30
2024-05-09T16:19:30.269Z,0.20
2024-05-09T16:22:00.181Z,0.20
2024-05-09T16:24:29.885Z,0.50
2024-05-09T16:26:59.681Z,0.00
2024-05-09T16:29:29.344Z,0.20
2024-05-09T16:31:59.061Z,0.10
2024-05-09T16:34:29.318Z,0.40
2024-05-09T16:36:59.836Z,0.20
2024-05-09T16:39:29.596Z,0.20
2024-05-09T16:41:59.234Z,0.10
2024-05-09T16:44:28.841Z,0.20
2024-05-09T16:46:58.484Z,0.10
2024-05-09T16:49:28.153Z,0.20
2024-05-09T16:51:57.931Z,0.40
2024-05-09T16:54:27.624Z,0.20
2024-05-09T16:56:57.376Z,0.20
2024-05-09T16:59:27.253Z,0.10
2024-05-09T17:01:57.050Z,0.30
2024-05-09T17:04:27.290Z,0.40
2024-05-09T17:06:57.057Z,0.30
2024-05-09T17:09:26.645Z,0.50
2024-05-09T17:11:56.364Z,0.40
2024-05-09T17:14:25.907Z,0.30
2024-05-09T17:16:55.544Z,0.40
2024-05-09T17:19:25.571Z,0.40
2024-05-09T17:21:55.309Z,0.30
2024-05-09T17:24:24.910Z,0.30
2024-05-09T17:26:54.601Z,0.20
2024-05-09T17:29:24.200Z,0.30
2024-05-09T17:31:53.848Z,0.40
2024-05-09T17:34:24.957Z,0.30
2024-05-09T17:36:54.678Z,0.10
2024-05-09T17:39:24.578Z,0.10
2024-05-09T17:41:55.098Z,0.40
2024-05-09T17:44:25.019Z,0.50
2024-05-09T17:46:54.781Z,0.20
2024-05-09T17:49:24.508Z,0.30
2024-05-09T17:51:54.753Z,0.30
2024-05-09T17:54:24.593Z,0.40
2024-05-09T17:56:54.207Z,0.30
2024-05-09T17:59:23.765Z,0.30
2024-05-09T18:01:53.399Z,0.40
2024-05-09T18:04:23.130Z,0.60
2024-05-09T18:06:52.910Z,0.40
2024-05-09T18:09:22.720Z,0.40
2024-05-09T18:11:52.313Z,0.40
2024-05-09T18:14:21.978Z,0.60
2024-05-09T18:16:51.617Z,0.10
2024-05-09T18:19:21.336Z,0.20
2024-05-09T18:21:51.094Z,0.40
2024-05-09T18:24:21.928Z,0.40
2024-05-09T18:26:51.610Z,0.30
2024-05-09T18:29:22.363Z,0.50
2024-05-09T18:31:52.059Z,0.60
2024-05-09T18:34:21.701Z,0.50
2024-05-09T18:36:51.380Z,0.50
2024-05-09T18:39:21.017Z,0.50
2024-05-09T18:41:50.629Z,0.60
2024-05-09T18:44:20.296Z,0.60
2024-05-09T18:46:49.859Z,0.60
2024-05-09T18:49:19.641Z,0.40
2024-05-09T18:51:49.372Z,0.30
2024-05-09T18:54:18.994Z,0.40
2024-05-09T18:56:48.533Z,0.40
2024-05-09T18:59:18.115Z,0.50
2024-05-09T19:01:47.860Z,0.50
2024-05-09T19:04:18.232Z,0.50
2024-05-09T19:06:48.166Z,0.50
2024-05-09T19:09:17.798Z,0.40
2024-05-09T19:11:47.459Z,0.30
2024-05-09T19:14:17.005Z,0.50
2024-05-09T19:16:46.600Z,0.20
2024-05-09T19:19:16.549Z,0.30
2024-05-09T19:21:46.224Z,0.50
2024-05-09T19:24:16.975Z,0.40
2024-05-09T19:26:46.805Z,0.30
2024-05-09T19:29:16.332Z,0.60
2024-05-09T19:31:45.889Z,0.60
2024-05-09T19:34:15.506Z,0.40
2024-05-09T19:36:45.240Z,0.50
2024-05-09T19:39:14.997Z,0.70
2024-05-09T19:41:44.623Z,0.50
2024-05-09T19:44:14.268Z,0.70
2024-05-09T19:46:43.956Z,0.70
2024-05-09T19:49:13.643Z,0.60
2024-05-09T19:51:43.445Z,0.60
2024-05-09T19:54:13.090Z,0.60
2024-05-09T19:56:44.977Z,0.80
2024-05-09T19:59:15.045Z,0.50
2024-05-09T20:01:44.796Z,0.60
2024-05-09T20:04:14.642Z,0.70
2024-05-09T20:06:44.656Z,0.40
2024-05-09T20:09:14.308Z,0.40
2024-05-09T20:11:43.909Z,0.40
2024-05-09T20:14:14.038Z,0.50
2024-05-09T20:16:44.592Z,0.40
2024-05-09T20:19:14.347Z,0.60
2024-05-09T20:21:44.362Z,0.50
2024-05-09T20:24:13.980Z,0.60
2024-05-09T20:26:43.583Z,0.50
2024-05-09T20:29:13.201Z,0.50
2024-05-09T20:31:42.733Z,0.50
2024-05-09T20:34:12.318Z,0.70
2024-05-09T20:36:41.935Z,0.40
2024-05-09T20:39:11.539Z,0.70
2024-05-09T20:41:43.415Z,0.70
2024-05-09T20:44:14.716Z,0.70
2024-05-09T20:46:45.042Z,0.50
2024-05-09T20:49:14.786Z,0.60
2024-05-09T20:51:44.529Z,0.70
2024-05-09T20:54:14.170Z,0.70
2024-05-09T20:56:43.719Z,0.80
2024-05-09T20:59:13.335Z,0.90
2024-05-09T21:01:45.631Z,0.80
2024-05-09T21:04:17.829Z,0.80
2024-05-09T21:06:47.653Z,0.60
2024-05-09T21:09:17.263Z,0.50
2024-05-09T21:11:47.143Z,0.60
2024-05-09T21:14:16.873Z,0.80
2024-05-09T21:16:46.517Z,0.70
2024-05-09T21:19:17.007Z,0.70
2024-05-09T21:21:46.675Z,0.80
2024-05-09T21:24:16.420Z,0.80
2024-05-09T21:26:46.060Z,0.60
2024-05-09T21:29:15.688Z,0.50
2024-05-09T21:31:45.229Z,0.60
2024-05-09T21:34:15.000Z,0.60
2024-05-09T21:36:44.913Z,0.60
2024-05-09T21:39:14.615Z,0.60
2024-05-09T21:41:44.207Z,0.70
2024-05-09T21:44:13.784Z,0.70
2024-05-09T21:46:44.218Z,0.60
2024-05-09T21:49:14.031Z,0.70
2024-05-09T21:51:43.770Z,0.60
2024-05-09T21:54:13.573Z,0.70
2024-05-09T21:56:43.201Z,0.60
2024-05-09T21:59:12.770Z,0.60
2024-05-09T22:01:42.474Z,0.40
2024-05-09T22:04:12.218Z,0.70
2024-05-09T22:06:41.941Z,0.50
2024-05-09T22:09:11.529Z,0.70
2024-05-09T22:11:41.184Z,0.40
2024-05-09T22:14:10.757Z,0.70
2024-05-09T22:16:41.738Z,0.70
2024-05-09T22:19:11.324Z,0.60
2024-05-09T22:21:40.955Z,0.60
2024-05-09T22:24:10.532Z,0.70
2024-05-09T22:26:40.095Z,0.70
2024-05-09T22:29:09.749Z,0.70
2024-05-09T22:31:39.319Z,0.60
2024-05-09T22:34:09.037Z,0.80
2024-05-09T22:36:38.777Z,0.70
2024-05-09T22:39:08.347Z,0.60
2024-05-09T22:41:37.906Z,0.60
2024-05-09T22:44:07.666Z,0.60
2024-05-09T22:46:37.263Z,0.70
2024-05-09T22:49:07.138Z,0.50
2024-05-09T22:51:36.826Z,0.80
2024-05-09T22:54:06.505Z,0.70
2024-05-09T22:56:36.116Z,0.50
2024-05-09T22:59:06.447Z,0.70
2024-05-09T23:01:36.121Z,0.60
2024-05-09T23:04:06.128Z,0.50
2024-05-09T23:06:35.886Z,0.70
2024-05-09T23:09:07.457Z,0.70
2024-05-09T23:11:40.885Z,0.60
2024-05-09T23:14:10.476Z,0.50
2024-05-09T23:16:40.068Z,0.70
2024-05-09T23:19:10.163Z,0.60
2024-05-09T23:21:40.459Z,0.60
2024-05-09T23:24:10.226Z,0.70
2024-05-09T23:26:43.703Z,0.70
2024-05-09T23:29:13.321Z,0.90
2024-05-09T23:31:43.444Z,0.50
2024-05-09T23:34:13.167Z,0.80
2024-05-09T23:36:42.904Z,0.60
2024-05-09T23:39:12.601Z,0.60
2024-05-09T23:41:42.166Z,0.70
2024-05-09T23:44:11.898Z,0.90
2024-05-09T23:46:41.614Z,0.80
2024-05-09T23:49:12.068Z,0.80
2024-05-09T23:51:41.719Z,0.80
2024-05-09T23:54:11.321Z,0.60
2024-05-09T23:56:40.897Z,0.70
2024-05-09T23:59:10.556Z,0.90
